Time;durP1;ratioP1;P1;durP2;ratioP2;P2;SDS_P1;SDS_P2;PMS_P1;PMS_P2;Temp;Humidity;BMP_temperature;BMP_pressure;BME280_temperature;BME280_humidity;BME280_pressure;Samples;Min_cycle;Max_cycle;Signal;HPM_P1;HPM_P2
2022/01/08 00:00:31;;;;;;;7.47;3.10;;;;;;;3.48;96.61;100052.91;5108440;27;20318;-59
2022/01/08 00:02:59;;;;;;;6.80;3.70;;;;;;;3.37;96.92;100040.59;5105262;28;20239;-60
2022/01/08 00:05:27;;;;;;;6.87;3.70;;;;;;;3.39;97.26;100044.78;5110457;27;20209;-60
2022/01/08 00:07:55;;;;;;;7.93;3.80;;;;;;;3.36;97.01;100039.75;5099944;28;20239;-60
2022/01/08 00:10:24;;;;;;;7.63;3.67;;;;;;;3.34;97.88;100041.66;5110719;27;20203;-58
2022/01/08 00:12:52;;;;;;;7.53;3.80;;;;;;;3.33;97.71;100034.75;5111745;27;20235;-60
2022/01/08 00:15:21;;;;;;;8.87;3.90;;;;;;;3.39;96.83;100023.81;5117722;27;20203;-60
2022/01/08 00:17:49;;;;;;;8.33;4.07;;;;;;;3.36;97.15;100018.78;5094590;28;20204;-60
2022/01/08 00:20:17;;;;;;;7.83;4.17;;;;;;;3.33;97.99;100011.16;5100170;28;20310;-60
2022/01/08 00:22:45;;;;;;;9.23;4.23;;;;;;;3.56;96.59;100008.63;5103941;27;20218;-60
2022/01/08 00:25:13;;;;;;;6.47;3.80;;;;;;;3.40;97.06;100004.53;5101116;27;20231;-60
2022/01/08 00:27:42;;;;;;;6.83;4.07;;;;;;;3.33;98.22;99998.06;5097743;27;20315;-60
2022/01/08 00:30:11;;;;;;;7.67;4.17;;;;;;;3.49;97.38;99996.91;5124275;27;20209;-59
2022/01/08 00:32:39;;;;;;;7.37;4.60;;;;;;;3.38;98.98;99985.44;5110812;28;20565;-60
2022/01/08 00:35:08;;;;;;;7.60;4.10;;;;;;;3.28;99.46;99988.84;5106472;27;20272;-60
2022/01/08 00:37:37;;;;;;;10.63;5.03;;;;;;;3.31;99.18;99981.63;5108963;27;20262;-58
2022/01/08 00:40:06;;;;;;;9.03;4.43;;;;;;;3.25;99.61;99978.63;5108874;27;20227;-60
2022/01/08 00:42:33;;;;;;;9.07;4.70;;;;;;;3.27;99.71;99974.91;5092414;28;20663;-60
2022/01/08 00:45:03;;;;;;;16.47;7.77;;;;;;;3.28;99.25;99971.34;5109568;28;20242;-60
2022/01/08 00:47:31;;;;;;;12.13;7.23;;;;;;;3.36;98.64;99962.91;5107515;28;20219;-60
2022/01/08 00:49:59;;;;;;;8.93;5.27;;;;;;;3.32;98.35;99954.47;5106798;28;20242;-60
2022/01/08 00:52:27;;;;;;;9.83;5.00;;;;;;;3.48;97.27;99951.53;5110153;27;20302;-59
2022/01/08 00:54:54;;;;;;;9.37;4.70;;;;;;;3.39;98.15;99949.59;5111812;27;20220;-60
2022/01/08 00:57:22;;;;;;;11.57;5.30;;;;;;;3.53;97.16;99948.53;5107268;28;20216;-59
2022/01/08 00:59:50;;;;;;;9.77;4.37;;;;;;;3.58;97.24;99933.31;5107556;28;20269;-58
2022/01/08 01:02:19;;;;;;;8.83;4.87;;;;;;;3.53;97.56;99924.94;5102366;27;20569;-59
2022/01/08 01:04:47;;;;;;;11.13;5.40;;;;;;;3.55;97.05;99928.28;5106226;27;20299;-59
2022/01/08 01:07:14;;;;;;;11.03;5.30;;;;;;;3.38;98.04;99917.31;5110088;27;20323;-59
2022/01/08 01:09:42;;;;;;;10.40;4.63;;;;;;;3.37;98.17;99913.00;5108525;28;20199;-59
2022/01/08 01:12:10;;;;;;;8.10;4.17;;;;;;;3.47;97.92;99907.06;5112341;27;20832;-60
2022/01/08 01:14:58;;;;;;;9.20;4.50;;;;;;;3.43;98.35;99900.41;5099909;28;20319;-62
2022/01/08 01:17:27;;;;;;;9.13;3.97;;;;;;;3.44;99.00;99896.81;5106538;27;20273;-59
2022/01/08 01:19:55;;;;;;;11.67;4.27;;;;;;;3.46;98.73;99887.03;5109225;27;20236;-59
2022/01/08 01:22:28;;;;;;;11.53;4.10;;;;;;;3.53;98.90;99883.00;5109404;28;20225;-61
2022/01/08 01:25:02;;;;;;;7.67;4.30;;;;;;;3.46;99.66;99877.41;5093700;28;20717;-60
2022/01/08 01:30:15;;;;;;;8.30;4.30;;;;;;;3.42;100.00;99868.13;5101174;27;20235;-60
2022/01/08 01:41:35;;;;;;;7.20;4.17;;;;;;;3.50;100.00;99863.13;5046732;28;20274;-60
2022/01/08 01:47:03;;;;;;;10.00;4.33;;;;;;;3.45;100.00;99848.69;5085895;28;20219;-60
2022/01/08 01:49:35;;;;;;;9.33;4.03;;;;;;;3.48;100.00;99835.34;5107034;28;20228;-60
2022/01/08 01:52:05;;;;;;;8.40;4.03;;;;;;;3.57;100.00;99838.09;5106416;28;20226;-60
2022/01/08 01:54:34;;;;;;;9.20;4.07;;;;;;;3.43;100.00;99829.63;5103556;28;20240;-60
2022/01/08 01:57:04;;;;;;;7.60;3.33;;;;;;;3.51;100.00;99832.50;5109369;27;20296;-60
2022/01/08 01:59:33;;;;;;;9.87;3.30;;;;;;;3.47;100.00;99831.06;5108539;28;20286;-60
2022/01/08 02:02:01;;;;;;;8.13;2.83;;;;;;;3.51;100.00;99825.47;5101186;27;20249;-61
2022/01/08 02:04:29;;;;;;;6.77;2.73;;;;;;;3.44;100.00;99831.28;5106803;27;20250;-60
2022/01/08 02:06:59;;;;;;;7.43;2.90;;;;;;;3.45;100.00;99817.22;5106822;28;20211;-60
2022/01/08 02:09:27;;;;;;;6.20;2.53;;;;;;;3.50;100.00;99815.09;5110874;27;20262;-60
2022/01/08 02:11:56;;;;;;;5.30;2.87;;;;;;;3.39;100.00;99822.00;5122346;27;20291;-61
2022/01/08 02:14:23;;;;;;;11.83;2.70;;;;;;;3.46;100.00;99816.28;5105324;28;20590;-59
2022/01/08 02:16:51;;;;;;;8.37;2.50;;;;;;;3.37;100.00;99818.66;5107049;28;20306;-59
2022/01/08 02:19:20;;;;;;;5.63;2.10;;;;;;;3.39;100.00;99808.91;5105026;28;20214;-60
2022/01/08 02:21:50;;;;;;;10.53;2.67;;;;;;;3.51;100.00;99817.59;5092189;28;20295;-60
2022/01/08 02:24:18;;;;;;;6.70;2.30;;;;;;;3.45;100.00;99814.59;5110301;28;20208;-60
2022/01/08 02:26:45;;;;;;;5.70;2.30;;;;;;;3.30;100.00;99808.78;5098573;28;20218;-61
2022/01/08 02:29:14;;;;;;;5.93;2.30;;;;;;;3.49;100.00;99811.66;5107926;28;20205;-61
2022/01/08 02:31:42;;;;;;;9.10;1.80;;;;;;;3.42;100.00;99799.97;5103986;28;20209;-61
2022/01/08 02:34:10;;;;;;;4.07;1.83;;;;;;;3.44;100.00;99812.94;5086813;28;20690;-61
2022/01/08 02:36:39;;;;;;;4.97;2.00;;;;;;;3.60;100.00;99813.44;5107802;28;20229;-61
2022/01/08 02:39:08;;;;;;;4.60;2.13;;;;;;;3.67;100.00;99798.88;5104777;28;20627;-60
2022/01/08 02:41:36;;;;;;;8.53;3.30;;;;;;;3.70;100.00;99801.25;5106362;28;20696;-61
2022/01/08 02:44:06;;;;;;;7.57;2.40;;;;;;;3.75;100.00;99807.81;5107412;28;20217;-60
2022/01/08 02:46:34;;;;;;;8.67;2.27;;;;;;;3.66;100.00;99802.47;5106873;28;20292;-60
2022/01/08 02:49:02;;;;;;;4.77;2.10;;;;;;;3.66;100.00;99799.84;5094878;28;20292;-60
2022/01/08 02:51:31;;;;;;;5.73;2.10;;;;;;;3.82;100.00;99800.28;5094375;28;20241;-60
2022/01/08 02:53:58;;;;;;;3.23;1.50;;;;;;;3.71;100.00;99793.28;5091913;28;20237;-61
2022/01/08 02:56:28;;;;;;;3.40;1.50;;;;;;;3.67;100.00;99789.25;5105213;27;20255;-60
2022/01/08 02:58:55;;;;;;;4.70;1.67;;;;;;;3.77;100.00;99791.97;5112530;27;20207;-61
2022/01/08 03:01:23;;;;;;;2.83;1.50;;;;;;;3.58;100.00;99787.34;5095879;28;20225;-60
2022/01/08 03:03:52;;;;;;;5.50;1.70;;;;;;;3.69;100.00;99792.53;5097139;27;20213;-61
2022/01/08 03:06:20;;;;;;;5.30;2.10;;;;;;;3.99;100.00;99796.31;5103675;28;20646;-60
2022/01/08 03:08:47;;;;;;;5.77;2.57;;;;;;;4.22;99.88;99818.94;5108990;27;20249;-60
2022/01/08 03:11:15;;;;;;;5.93;1.77;;;;;;;4.31;98.08;99830.50;5122527;27;21688;-61
2022/01/08 03:13:44;;;;;;;4.60;1.97;;;;;;;4.34;96.71;99838.09;5108617;28;20786;-59
2022/01/08 03:16:12;;;;;;;4.07;1.40;;;;;;;4.25;95.72;99841.47;5107411;27;20247;-59
2022/01/08 03:18:40;;;;;;;3.67;1.37;;;;;;;4.40;94.99;99842.84;5112367;27;20213;-60
2022/01/08 03:21:14;;;;;;;7.23;1.40;;;;;;;4.46;93.94;99842.38;5111206;27;20238;-60
2022/01/08 03:23:48;;;;;;;3.13;1.60;;;;;;;4.36;93.86;99838.81;5100553;28;20278;-58
2022/01/08 03:26:17;;;;;;;8.50;1.93;;;;;;;4.41;93.88;99834.03;5108901;27;20941;-61
2022/01/08 03:28:47;;;;;;;3.10;1.50;;;;;;;4.51;92.72;99835.78;5107924;28;20307;-61
2022/01/08 03:31:16;;;;;;;4.23;1.77;;;;;;;4.37;90.93;99843.13;5109096;28;20672;-61
2022/01/08 03:33:45;;;;;;;3.47;2.43;;;;;;;4.52;91.69;99844.50;5108621;27;20292;-59
2022/01/08 03:36:15;;;;;;;5.17;1.80;;;;;;;4.30;90.28;99840.16;5095218;27;20211;-59
2022/01/08 03:38:42;;;;;;;3.83;1.83;;;;;;;4.57;90.33;99837.09;5112508;28;20712;-60
2022/01/08 03:41:10;;;;;;;3.00;1.70;;;;;;;4.38;90.19;99829.03;5109155;27;20709;-59
2022/01/08 03:43:38;;;;;;;5.57;2.10;;;;;;;4.43;90.84;99830.31;5107098;27;20233;-59
2022/01/08 03:46:07;;;;;;;4.27;2.33;;;;;;;4.58;89.84;99820.34;5107742;28;20267;-59
2022/01/08 03:48:45;;;;;;;3.30;1.73;;;;;;;4.66;88.95;99835.50;5094889;27;20204;-59
2022/01/08 03:51:15;;;;;;;4.40;1.93;;;;;;;4.64;89.01;99847.91;5107155;28;20201;-59
2022/01/08 03:53:44;;;;;;;5.00;2.10;;;;;;;4.66;88.26;99849.44;5095797;28;20214;-59
2022/01/08 03:56:11;;;;;;;3.87;2.03;;;;;;;4.48;88.56;99840.47;5095888;27;20309;-60
2022/01/08 03:58:39;;;;;;;4.43;2.00;;;;;;;4.48;88.22;99851.81;5103640;27;20210;-62
2022/01/08 04:01:08;;;;;;;3.70;2.17;;;;;;;4.39;88.60;99855.16;5107573;28;20616;-63
2022/01/08 04:03:36;;;;;;;2.93;1.80;;;;;;;3.92;88.31;99856.31;5094466;28;20221;-59
2022/01/08 04:06:04;;;;;;;2.90;1.43;;;;;;;4.06;88.08;99856.06;5095216;28;20241;-61
2022/01/08 04:08:31;;;;;;;2.27;1.33;;;;;;;3.88;87.55;99857.50;5108418;27;20304;-59
2022/01/08 04:10:59;;;;;;;3.73;1.87;;;;;;;3.92;88.38;99869.44;5118271;27;20267;-60
2022/01/08 04:13:31;;;;;;;2.60;1.70;;;;;;;3.84;88.11;99877.06;5104206;27;20280;-59
2022/01/08 04:16:07;;;;;;;4.07;1.90;;;;;;;4.00;88.02;99882.78;5112280;28;20292;-59
2022/01/08 04:18:36;;;;;;;2.93;1.67;;;;;;;3.94;87.40;99899.00;5120300;27;20212;-59
2022/01/08 04:21:22;;;;;;;4.30;2.40;;;;;;;3.95;88.06;99895.44;5104162;27;20305;-60
2022/01/08 04:23:50;;;;;;;4.00;2.30;;;;;;;4.11;87.05;99916.88;5110316;27;20299;-59
2022/01/08 04:26:18;;;;;;;2.83;1.93;;;;;;;3.98;87.20;99931.91;5111305;27;20230;-59
2022/01/08 04:28:46;;;;;;;3.47;1.80;;;;;;;4.13;86.54;99928.06;5113020;27;20636;-60
2022/01/08 04:31:13;;;;;;;4.43;1.93;;;;;;;3.84;88.11;99941.81;5110565;28;20702;-59
2022/01/08 04:33:43;;;;;;;2.90;1.80;;;;;;;3.98;87.92;99958.13;5108094;27;20818;-59
2022/01/08 04:36:10;;;;;;;3.30;1.90;;;;;;;4.00;87.92;99960.66;5110741;27;20251;-58
2022/01/08 04:38:38;;;;;;;2.07;1.30;;;;;;;4.01;87.16;99984.16;5108270;28;20217;-59
2022/01/08 04:41:06;;;;;;;2.27;1.10;;;;;;;4.01;86.75;99996.44;5111614;27;20209;-60
2022/01/08 04:43:37;;;;;;;0.97;0.63;;;;;;;3.98;87.08;99994.88;5109891;28;20269;-59
2022/01/08 04:46:05;;;;;;;1.17;0.60;;;;;;;3.99;87.06;100008.81;5109767;27;20212;-59
2022/01/08 04:48:32;;;;;;;1.13;0.70;;;;;;;3.90;87.35;100005.13;5110505;27;20300;-61
2022/01/08 04:51:02;;;;;;;0.70;0.50;;;;;;;3.71;88.42;100016.16;5110188;27;20670;-59
2022/01/08 04:53:29;;;;;;;1.17;0.63;;;;;;;4.02;87.96;100019.94;5111640;27;20300;-59
2022/01/08 04:55:57;;;;;;;0.53;0.43;;;;;;;3.98;87.79;100025.50;5110143;28;20297;-57
2022/01/08 04:58:25;;;;;;;2.00;0.63;;;;;;;4.06;86.79;100039.72;5110375;27;20215;-57
2022/01/08 05:00:53;;;;;;;0.73;0.40;;;;;;;4.10;87.67;100049.03;5107855;27;20332;-59
2022/01/08 05:03:21;;;;;;;0.50;0.40;;;;;;;3.91;88.85;100048.75;5094065;27;20233;-59
2022/01/08 05:05:49;;;;;;;0.80;0.50;;;;;;;4.10;87.86;100051.66;5113233;27;20243;-60
2022/01/08 05:08:18;;;;;;;1.53;0.37;;;;;;;4.07;87.87;100066.78;5120439;27;20217;-60
2022/01/08 05:10:46;;;;;;;1.67;0.30;;;;;;;4.14;87.50;100071.44;5113415;27;20293;-59
2022/01/08 05:13:14;;;;;;;0.80;0.40;;;;;;;4.14;87.75;100081.94;5107091;27;20248;-60
2022/01/08 05:15:42;;;;;;;0.60;0.40;;;;;;;4.09;87.92;100089.34;5110148;27;20221;-60
2022/01/08 05:18:10;;;;;;;0.27;0.20;;;;;;;4.11;86.65;100095.31;5125130;27;20704;-60
2022/01/08 05:20:40;;;;;;;0.30;0.30;;;;;;;4.11;87.19;100107.59;5106958;28;20328;-60
2022/01/08 05:23:08;;;;;;;1.07;0.40;;;;;;;4.22;86.81;100117.28;5107016;28;20301;-60
2022/01/08 05:25:39;;;;;;;0.80;0.47;;;;;;;4.30;85.94;100125.41;5106485;28;20233;-61
2022/01/08 05:28:06;;;;;;;1.23;0.40;;;;;;;4.15;85.73;100127.41;5110097;27;20627;-60
2022/01/08 05:30:34;;;;;;;0.73;0.40;;;;;;;4.28;85.82;100137.81;5109708;28;20220;-61
2022/01/08 05:33:02;;;;;;;0.80;0.30;;;;;;;4.28;85.89;100146.53;5107921;28;20305;-60
2022/01/08 05:35:30;;;;;;;0.63;0.37;;;;;;;4.37;85.41;100147.63;5108226;27;20267;-60
2022/01/08 05:37:58;;;;;;;1.77;0.87;;;;;;;4.27;85.11;100157.13;5108327;27;20296;-60
2022/01/08 05:40:26;;;;;;;1.60;0.30;;;;;;;4.31;84.68;100158.59;5109822;27;20702;-60
2022/01/08 05:42:55;;;;;;;1.20;0.33;;;;;;;4.25;84.18;100169.53;5109400;28;20416;-60
2022/01/08 05:45:22;;;;;;;1.77;0.40;;;;;;;4.24;84.52;100183.59;5098559;28;20296;-60
2022/01/08 05:47:50;;;;;;;2.00;0.30;;;;;;;4.10;84.28;100193.34;5107910;27;20223;-60
2022/01/08 05:50:18;;;;;;;0.63;0.30;;;;;;;4.31;84.20;100195.34;5105509;28;20216;-60
2022/01/08 05:52:48;;;;;;;1.77;0.23;;;;;;;4.41;83.98;100198.94;5109853;27;20387;-60
2022/01/08 05:55:17;;;;;;;0.77;0.23;;;;;;;4.36;84.26;100201.06;5110077;28;20300;-60
2022/01/08 05:57:45;;;;;;;1.23;0.60;;;;;;;4.50;83.92;100216.63;5105856;28;20238;-60
2022/01/08 06:00:15;;;;;;;1.37;0.63;;;;;;;4.52;83.69;100209.47;5106629;28;20209;-60
2022/01/08 06:02:42;;;;;;;2.90;1.20;;;;;;;4.49;83.54;100217.56;5095146;28;20221;-59
2022/01/08 06:05:11;;;;;;;3.30;1.47;;;;;;;4.20;83.26;100216.28;5109643;27;20209;-60
2022/01/08 06:07:39;;;;;;;4.30;1.47;;;;;;;4.37;83.83;100221.13;5093642;28;20221;-60
2022/01/08 06:10:07;;;;;;;4.03;1.87;;;;;;;4.23;84.32;100223.91;5105888;28;20555;-60
2022/01/08 06:12:35;;;;;;;4.03;1.83;;;;;;;4.19;84.15;100233.00;5098828;28;20312;-60
2022/01/08 06:15:04;;;;;;;4.87;2.03;;;;;;;4.27;84.60;100241.97;5085709;28;20241;-60
2022/01/08 06:17:33;;;;;;;3.83;2.00;;;;;;;4.50;84.24;100233.19;5094967;28;20257;-59
2022/01/08 06:20:01;;;;;;;3.47;1.80;;;;;;;4.46;83.94;100246.69;5071900;28;20217;-60
2022/01/08 06:22:28;;;;;;;3.57;1.90;;;;;;;4.55;83.76;100240.75;5084077;28;20328;-60
2022/01/08 06:24:56;;;;;;;6.83;2.00;;;;;;;4.36;83.48;100243.06;5085169;28;20240;-58
2022/01/08 06:27:24;;;;;;;6.97;2.10;;;;;;;4.44;84.04;100249.44;5085059;28;20211;-60
2022/01/08 06:29:51;;;;;;;2.80;1.67;;;;;;;4.35;83.54;100254.53;5078505;28;20209;-60
2022/01/08 06:32:20;;;;;;;4.60;2.60;;;;;;;4.46;83.32;100262.44;5090885;28;20206;-61
2022/01/08 06:34:50;;;;;;;4.07;2.07;;;;;;;4.48;83.26;100268.44;5090890;28;20241;-60
2022/01/08 06:37:18;;;;;;;5.53;1.90;;;;;;;4.42;83.15;100271.50;5084028;28;20252;-60
2022/01/08 06:39:47;;;;;;;2.60;1.40;;;;;;;4.47;82.50;100267.59;5077860;28;20246;-60
2022/01/08 06:42:15;;;;;;;4.70;1.60;;;;;;;4.49;82.43;100272.69;5076295;28;20346;-60
2022/01/08 06:44:43;;;;;;;6.93;1.80;;;;;;;4.51;82.32;100276.06;5091107;28;20298;-61
2022/01/08 06:47:11;;;;;;;6.43;2.20;;;;;;;4.38;82.48;100285.81;5082263;28;20295;-60
2022/01/08 06:49:44;;;;;;;3.60;2.00;;;;;;;4.14;82.99;100289.25;5083562;28;20309;-59
2022/01/08 06:52:13;;;;;;;3.90;2.20;;;;;;;4.07;83.49;100298.53;5078550;28;20214;-60
2022/01/08 06:54:41;;;;;;;7.00;2.27;;;;;;;4.26;83.10;100300.66;5091903;28;20612;-61
2022/01/08 06:57:09;;;;;;;5.07;1.93;;;;;;;4.16;82.91;100305.75;5091268;28;20225;-60
2022/01/08 06:59:37;;;;;;;4.43;2.03;;;;;;;4.31;82.89;100316.09;5079123;28;20211;-60
2022/01/08 07:02:05;;;;;;;7.23;2.40;;;;;;;4.26;82.62;100320.81;5084203;28;20718;-58
2022/01/08 07:04:33;;;;;;;7.03;2.40;;;;;;;4.33;82.83;100319.41;5092438;28;20225;-60
2022/01/08 07:07:00;;;;;;;8.57;2.90;;;;;;;4.44;82.40;100328.19;5088458;28;20298;-60
2022/01/08 07:09:29;;;;;;;5.10;2.60;;;;;;;4.34;82.60;100328.97;5090447;28;20205;-60
2022/01/08 07:11:57;;;;;;;12.80;3.13;;;;;;;4.44;82.41;100340.47;5084882;28;20249;-60
2022/01/08 07:14:25;;;;;;;7.70;2.63;;;;;;;4.43;82.30;100349.31;5108794;27;20308;-57
2022/01/08 07:16:54;;;;;;;5.57;2.30;;;;;;;4.38;81.93;100348.81;5112758;27;20745;-59
2022/01/08 07:19:22;;;;;;;6.10;2.83;;;;;;;4.56;82.03;100363.22;5103204;27;20233;-58
2022/01/08 07:21:49;;;;;;;7.33;2.27;;;;;;;4.45;81.50;100368.41;5112983;28;20214;-60
2022/01/08 07:24:17;;;;;;;5.90;2.10;;;;;;;4.47;81.81;100374.41;5110659;27;20248;-60
2022/01/08 07:26:46;;;;;;;7.13;2.33;;;;;;;4.57;81.33;100385.91;5110502;27;20209;-60
2022/01/08 07:29:14;;;;;;;6.67;2.00;;;;;;;4.48;80.95;100387.44;5110754;27;20666;-60
2022/01/08 07:31:42;;;;;;;4.20;1.70;;;;;;;4.52;81.42;100404.63;5114529;27;20213;-60
2022/01/08 07:34:10;;;;;;;5.23;1.80;;;;;;;4.56;81.31;100405.25;5111465;28;20201;-60
2022/01/08 07:36:38;;;;;;;3.97;2.30;;;;;;;4.36;81.71;100404.06;5111475;27;20687;-60
2022/01/08 07:39:05;;;;;;;5.40;2.50;;;;;;;4.45;81.83;100413.06;5111117;27;20221;-60
2022/01/08 07:41:33;;;;;;;5.57;2.40;;;;;;;4.50;81.58;100427.53;5111564;27;20215;-60
2022/01/08 07:44:03;;;;;;;5.47;1.90;;;;;;;4.49;81.14;100430.25;5113218;27;20237;-61
2022/01/08 07:46:30;;;;;;;5.30;1.87;;;;;;;4.38;80.86;100430.22;5112036;28;20302;-60
2022/01/08 07:48:58;;;;;;;3.70;1.40;;;;;;;4.49;80.31;100432.88;5110848;27;20321;-60
2022/01/08 07:51:26;;;;;;;4.30;1.63;;;;;;;4.47;80.08;100442.69;5108598;28;20213;-60
2022/01/08 07:53:54;;;;;;;4.97;1.60;;;;;;;4.71;79.61;100451.41;5110260;27;20282;-60
2022/01/08 07:56:21;;;;;;;4.70;1.57;;;;;;;4.60;79.23;100446.09;5113800;27;20539;-60
2022/01/08 07:58:49;;;;;;;9.43;1.93;;;;;;;4.70;78.82;100449.72;5110033;28;20213;-61
2022/01/08 08:01:23;;;;;;;6.93;1.70;;;;;;;4.64;77.36;100451.97;5107664;27;20301;-61
2022/01/08 08:03:50;;;;;;;3.50;1.33;;;;;;;4.47;78.75;100453.19;5107934;27;20226;-60
2022/01/08 08:06:18;;;;;;;4.27;1.50;;;;;;;4.69;78.27;100460.34;5113144;27;20292;-60
2022/01/08 08:08:46;;;;;;;2.77;1.20;;;;;;;4.49;77.33;100459.97;5111730;27;20213;-61
2022/01/08 08:11:14;;;;;;;5.30;1.20;;;;;;;4.43;79.78;100463.06;5120317;27;20212;-61
2022/01/08 08:13:42;;;;;;;3.97;1.10;;;;;;;4.53;77.88;100457.97;5107660;27;20609;-58
2022/01/08 08:16:10;;;;;;;3.87;1.10;;;;;;;4.48;78.62;100462.75;5109678;27;20305;-59
2022/01/08 08:18:39;;;;;;;4.27;1.10;;;;;;;4.69;78.34;100473.47;5111404;27;20304;-59
2022/01/08 08:21:06;;;;;;;3.13;1.30;;;;;;;4.72;77.61;100473.25;5114448;27;20288;-59
2022/01/08 08:23:34;;;;;;;5.10;1.27;;;;;;;4.77;77.88;100469.34;5108976;28;20434;-59
2022/01/08 08:26:02;;;;;;;4.93;1.50;;;;;;;4.58;78.52;100471.59;5107678;28;20650;-58
2022/01/08 08:28:30;;;;;;;7.70;1.50;;;;;;;4.78;77.89;100480.69;5111811;27;20304;-60
2022/01/08 08:30:58;;;;;;;4.30;1.27;;;;;;;4.79;77.19;100482.38;5108363;27;20575;-60
2022/01/08 08:33:26;;;;;;;3.70;1.67;;;;;;;4.59;77.43;100490.84;5110831;28;20293;-60
2022/01/08 08:35:55;;;;;;;4.10;1.33;;;;;;;4.72;77.92;100487.25;5108592;28;20304;-59
2022/01/08 08:38:22;;;;;;;4.33;1.20;;;;;;;4.74;77.04;100490.59;5108953;27;20300;-59
2022/01/08 08:40:51;;;;;;;4.53;1.60;;;;;;;4.70;76.74;100499.63;5107361;27;20209;-60
2022/01/08 08:43:19;;;;;;;4.87;1.20;;;;;;;4.80;76.94;100495.41;5109992;27;20214;-60
2022/01/08 08:45:47;;;;;;;6.43;1.73;;;;;;;4.80;77.26;100498.03;5111594;27;20301;-60
2022/01/08 08:48:15;;;;;;;5.13;1.40;;;;;;;4.69;77.10;100513.72;5106587;28;20690;-59
2022/01/08 08:50:43;;;;;;;4.30;1.53;;;;;;;4.80;76.83;100507.69;5105658;27;20277;-60
2022/01/08 08:53:12;;;;;;;4.40;1.20;;;;;;;4.80;77.00;100502.44;5105284;28;20274;-60
2022/01/08 08:55:40;;;;;;;3.17;1.40;;;;;;;4.73;76.61;100507.31;5110140;27;20222;-61
2022/01/08 08:58:08;;;;;;;7.33;2.10;;;;;;;4.76;76.83;100506.22;5113791;27;20209;-60
2022/01/08 09:00:36;;;;;;;6.13;2.23;;;;;;;4.71;76.76;100501.31;5110869;27;20213;-60
2022/01/08 09:03:04;;;;;;;4.27;1.00;;;;;;;4.53;76.51;100505.25;5107050;27;20225;-61
2022/01/08 09:05:31;;;;;;;5.77;1.37;;;;;;;4.59;76.76;100517.94;5106210;27;20229;-61
2022/01/08 09:07:59;;;;;;;9.83;1.57;;;;;;;4.62;76.67;100512.47;5109263;27;20669;-59
2022/01/08 09:10:28;;;;;;;5.73;1.33;;;;;;;4.82;76.46;100511.06;5124428;27;20262;-61
2022/01/08 09:12:56;;;;;;;6.23;1.60;;;;;;;4.84;76.20;100519.66;5107782;27;20233;-61
2022/01/08 09:15:26;;;;;;;5.13;1.90;;;;;;;4.78;76.68;100531.44;5105262;27;20225;-59
2022/01/08 09:17:57;;;;;;;7.80;1.70;;;;;;;4.80;75.90;100526.94;5105271;28;20615;-60
2022/01/08 09:20:26;;;;;;;4.33;1.50;;;;;;;4.90;75.35;100522.69;5109497;27;20202;-61
2022/01/08 09:22:54;;;;;;;10.37;1.80;;;;;;;4.99;75.24;100525.59;5109805;28;20217;-61
2022/01/08 09:25:22;;;;;;;6.53;1.90;;;;;;;4.82;74.72;100534.72;5105137;28;20337;-59
2022/01/08 09:27:51;;;;;;;8.40;2.20;;;;;;;4.75;74.61;100539.53;5108052;27;20220;-60
2022/01/08 09:30:18;;;;;;;5.33;2.00;;;;;;;4.86;75.09;100546.66;5105203;27;20297;-61
2022/01/08 09:32:46;;;;;;;7.27;1.90;;;;;;;4.96;74.33;100529.28;5108096;27;20241;-59
2022/01/08 09:35:16;;;;;;;7.30;2.10;;;;;;;5.05;74.64;100530.41;5108410;28;20248;-60
2022/01/08 09:37:44;;;;;;;7.50;1.93;;;;;;;4.98;74.79;100537.91;5107219;28;20219;-60
2022/01/08 09:40:16;;;;;;;8.27;2.70;;;;;;;5.12;75.26;100539.53;5106978;27;20241;-61
2022/01/08 09:42:45;;;;;;;9.50;2.70;;;;;;;5.23;74.06;100544.84;5105469;27;20570;-59
2022/01/08 09:45:14;;;;;;;10.87;2.70;;;;;;;5.34;73.47;100538.81;5107004;28;20314;-60
2022/01/08 09:47:42;;;;;;;6.33;2.40;;;;;;;5.09;73.53;100535.34;5109052;28;20245;-59
2022/01/08 09:50:11;;;;;;;7.93;2.03;;;;;;;5.05;73.35;100533.03;5107948;28;20629;-60
2022/01/08 09:52:39;;;;;;;4.63;1.93;;;;;;;5.07;74.12;100541.66;5109204;27;20296;-60
2022/01/08 09:55:08;;;;;;;13.23;2.53;;;;;;;5.12;73.41;100540.34;5107474;27;20203;-60
2022/01/08 09:57:36;;;;;;;6.60;2.53;;;;;;;4.98;73.08;100532.66;5108396;27;20241;-59
2022/01/08 10:00:11;;;;;;;7.70;2.63;;;;;;;5.25;73.81;100541.16;5100049;27;20306;-60
2022/01/08 10:02:41;;;;;;;8.63;2.57;;;;;;;5.22;72.65;100537.91;5105681;28;20717;-60
2022/01/08 10:05:11;;;;;;;8.93;2.70;;;;;;;5.62;72.15;100526.13;5106169;28;20291;-61
2022/01/08 10:07:40;;;;;;;7.07;2.40;;;;;;;5.91;70.64;100526.56;5106994;28;20651;-61
2022/01/08 10:10:12;;;;;;;5.73;2.57;;;;;;;6.27;69.79;100528.16;5118690;27;20237;-61
2022/01/08 10:12:47;;;;;;;7.23;2.70;;;;;;;6.29;67.99;100515.72;5110547;27;20661;-58
2022/01/08 10:18:11;;;;;;;8.00;2.60;;;;;;;7.84;63.11;100526.75;5106793;28;20668;-63
2022/01/08 10:20:41;;;;;;;7.97;2.40;;;;;;;10.66;55.22;100520.63;5107181;28;20226;-59
2022/01/08 10:23:16;;;;;;;7.00;2.50;;;;;;;11.56;51.64;100527.69;5105145;28;20218;-61
2022/01/08 10:25:57;;;;;;;7.67;2.80;;;;;;;9.82;52.79;100520.59;5105854;28;20316;-60
2022/01/08 10:28:39;;;;;;;5.07;1.97;;;;;;;7.88;59.94;100535.28;5108007;28;20212;-59
2022/01/08 10:31:16;;;;;;;7.77;2.63;;;;;;;7.64;61.19;100524.97;5108837;28;20584;-59
2022/01/08 10:33:48;;;;;;;6.10;2.23;;;;;;;9.04;57.89;100518.94;5105537;28;20427;-59
2022/01/08 10:36:21;;;;;;;5.13;2.17;;;;;;;8.04;60.08;100532.16;5096552;28;20612;-60
2022/01/08 10:38:54;;;;;;;6.73;2.13;;;;;;;7.64;62.63;100524.97;5100027;28;20303;-60
2022/01/08 10:41:23;;;;;;;4.10;1.80;;;;;;;8.47;60.01;100519.63;5106412;28;20677;-61
2022/01/08 10:44:06;;;;;;;7.00;2.03;;;;;;;9.51;57.03;100510.31;5107052;28;20273;-59
2022/01/08 10:46:34;;;;;;;5.67;1.97;;;;;;;10.12;53.54;100500.16;5107261;28;20268;-60
2022/01/08 10:49:04;;;;;;;4.30;1.63;;;;;;;9.96;54.22;100499.94;5105277;28;20293;-60
2022/01/08 10:51:37;;;;;;;5.50;1.90;;;;;;;10.14;52.16;100493.75;5104324;28;20301;-59
2022/01/08 10:54:09;;;;;;;7.03;1.87;;;;;;;11.17;50.80;100497.97;5090831;28;20425;-60
2022/01/08 10:56:39;;;;;;;6.73;2.23;;;;;;;12.43;48.07;100493.09;5094893;28;20200;-59
2022/01/08 10:59:10;;;;;;;5.27;2.17;;;;;;;12.53;47.33;100483.16;5114529;28;20256;-60
2022/01/08 11:01:51;;;;;;;5.80;2.03;;;;;;;11.80;48.33;100482.75;5107548;28;20782;-60
2022/01/08 11:04:43;;;;;;;7.33;2.07;;;;;;;10.49;51.35;100479.81;5107172;28;20719;-60
2022/01/08 11:07:13;;;;;;;4.90;1.77;;;;;;;9.85;54.16;100477.09;5104475;28;20633;-60
2022/01/08 11:09:44;;;;;;;4.63;1.93;;;;;;;10.43;53.36;100471.63;5107304;28;20719;-60
2022/01/08 11:12:16;;;;;;;4.57;1.50;;;;;;;10.77;51.64;100462.06;5105225;28;20229;-60
2022/01/08 11:17:39;;;;;;;4.73;1.50;;;;;;;9.82;52.99;100456.22;5110945;27;20229;-60
2022/01/08 11:20:12;;;;;;;3.87;1.47;;;;;;;8.55;55.96;100464.28;5110622;28;20300;-59
2022/01/08 11:22:41;;;;;;;6.00;1.90;;;;;;;8.99;56.43;100448.91;5105347;28;20297;-60
2022/01/08 11:25:10;;;;;;;6.13;2.83;;;;;;;8.25;58.88;100454.56;5104645;27;20226;-60
2022/01/08 11:27:46;;;;;;;7.63;2.30;;;;;;;8.24;58.17;100447.63;5109608;27;20265;-60
2022/01/08 11:30:19;;;;;;;5.87;1.63;;;;;;;8.24;58.80;100442.34;5113231;27;20205;-60
2022/01/08 11:32:48;;;;;;;10.67;3.10;;;;;;;8.44;58.19;100430.06;5094397;28;20229;-60
2022/01/08 11:35:36;;;;;;;3.97;1.43;;;;;;;8.14;59.28;100430.06;5109349;28;20213;-60
2022/01/08 11:38:07;;;;;;;4.80;1.63;;;;;;;8.01;59.43;100429.44;5105987;28;20257;-60
2022/01/08 11:40:37;;;;;;;4.27;1.43;;;;;;;7.84;59.36;100421.16;5104274;28;20306;-61
2022/01/08 11:43:07;;;;;;;5.67;1.50;;;;;;;7.56;60.21;100411.31;5106358;27;20641;-60
2022/01/08 11:45:36;;;;;;;3.63;1.57;;;;;;;7.32;60.73;100410.72;5110739;28;20233;-61
2022/01/08 11:48:08;;;;;;;5.17;1.63;;;;;;;7.28;61.54;100401.41;5110185;27;20287;-60
2022/01/08 11:50:38;;;;;;;6.23;1.63;;;;;;;7.14;61.80;100398.09;5107977;27;20245;-61
2022/01/08 11:53:14;;;;;;;4.50;1.40;;;;;;;7.45;61.46;100392.91;5108655;28;20237;-59
2022/01/08 11:55:43;;;;;;;4.50;1.30;;;;;;;7.37;62.06;100401.47;5109427;27;20212;-61
2022/01/08 11:58:15;;;;;;;4.87;1.20;;;;;;;7.28;61.61;100398.78;5126232;27;20242;-59
2022/01/08 12:00:48;;;;;;;3.97;0.97;;;;;;;7.07;61.46;100396.09;5111281;28;20237;-61
2022/01/08 12:03:25;;;;;;;5.17;1.23;;;;;;;6.93;63.27;100385.88;5106539;28;20210;-60